sensor_id;sensor_type;location;lat;lon;timestamp;pressure;altitude;pressure_sealevel;temperature;humidity
47330;BME280;33060;50.178;7.570;2023-01-31T00:01:26;97844.53;;;1.80;100.00
47330;BME280;33060;50.178;7.570;2023-01-31T00:03:58;97836.66;;;1.83;99.46
47330;BME280;33060;50.178;7.570;2023-01-31T00:06:30;97833.09;;;1.87;99.00
47330;BME280;33060;50.178;7.570;2023-01-31T00:08:58;97837.41;;;1.88;98.06
47330;BME280;33060;50.178;7.570;2023-01-31T00:11:28;97839.00;;;1.93;97.82
47330;BME280;33060;50.178;7.570;2023-01-31T00:13:57;97840.81;;;1.90;97.77
47330;BME280;33060;50.178;7.570;2023-01-31T00:16:24;97837.34;;;1.89;97.84
47330;BME280;33060;50.178;7.570;2023-01-31T00:18:51;97829.63;;;1.86;97.45
47330;BME280;33060;50.178;7.570;2023-01-31T00:21:23;97834.00;;;1.86;97.13
47330;BME280;33060;50.178;7.570;2023-01-31T00:23:51;97835.78;;;1.82;97.12
47330;BME280;33060;50.178;7.570;2023-01-31T00:26:22;97829.84;;;1.77;97.26
47330;BME280;33060;50.178;7.570;2023-01-31T00:28:50;97832.53;;;1.74;97.29
47330;BME280;33060;50.178;7.570;2023-01-31T00:31:18;97843.03;;;1.69;97.50
47330;BME280;33060;50.178;7.570;2023-01-31T00:33:48;97824.94;;;1.63;98.34
47330;BME280;33060;50.178;7.570;2023-01-31T00:36:18;97833.69;;;1.61;98.15
47330;BME280;33060;50.178;7.570;2023-01-31T00:38:53;97841.56;;;1.58;98.46
47330;BME280;33060;50.178;7.570;2023-01-31T00:41:22;97839.78;;;1.60;98.43
47330;BME280;33060;50.178;7.570;2023-01-31T00:43:50;97842.25;;;1.66;97.63
47330;BME280;33060;50.178;7.570;2023-01-31T00:46:17;97836.06;;;1.70;97.50
47330;BME280;33060;50.178;7.570;2023-01-31T00:48:46;97836.00;;;1.73;97.23
47330;BME280;33060;50.178;7.570;2023-01-31T00:51:12;97836.00;;;1.73;97.66
47330;BME280;33060;50.178;7.570;2023-01-31T00:53:39;97833.44;;;1.72;97.25
47330;BME280;33060;50.178;7.570;2023-01-31T00:56:13;97839.44;;;1.74;97.04
47330;BME280;33060;50.178;7.570;2023-01-31T00:58:41;97854.22;;;1.72;97.34
47330;BME280;33060;50.178;7.570;2023-01-31T01:01:13;97854.19;;;1.75;97.11
47330;BME280;33060;50.178;7.570;2023-01-31T01:03:42;97862.00;;;1.73;97.45
47330;BME280;33060;50.178;7.570;2023-01-31T01:06:10;97862.19;;;1.65;97.44
47330;BME280;33060;50.178;7.570;2023-01-31T01:08:38;97860.38;;;1.69;97.02
47330;BME280;33060;50.178;7.570;2023-01-31T01:11:15;97844.78;;;1.69;96.86
47330;BME280;33060;50.178;7.570;2023-01-31T01:13:43;97850.75;;;1.73;96.74
47330;BME280;33060;50.178;7.570;2023-01-31T01:16:19;97855.94;;;1.73;96.70
47330;BME280;33060;50.178;7.570;2023-01-31T01:18:47;97858.59;;;1.71;97.11
47330;BME280;33060;50.178;7.570;2023-01-31T01:21:18;97851.59;;;1.73;96.85
47330;BME280;33060;50.178;7.570;2023-01-31T01:23:45;97847.16;;;1.78;96.24
47330;BME280;33060;50.178;7.570;2023-01-31T01:26:17;97850.44;;;1.86;95.47
47330;BME280;33060;50.178;7.570;2023-01-31T01:28:44;97856.47;;;1.88;95.17
47330;BME280;33060;50.178;7.570;2023-01-31T01:31:12;97857.28;;;1.92;95.00
47330;BME280;33060;50.178;7.570;2023-01-31T01:33:39;97861.66;;;1.88;95.47
47330;BME280;33060;50.178;7.570;2023-01-31T01:36:08;97864.22;;;1.90;95.21
47330;BME280;33060;50.178;7.570;2023-01-31T01:38:40;97877.22;;;1.91;94.95
47330;BME280;33060;50.178;7.570;2023-01-31T01:41:08;97865.06;;;1.92;95.09
47330;BME280;33060;50.178;7.570;2023-01-31T01:46:13;97861.63;;;1.91;95.26
47330;BME280;33060;50.178;7.570;2023-01-31T01:48:43;97864.22;;;1.91;95.08
47330;BME280;33060;50.178;7.570;2023-01-31T01:51:13;97873.00;;;1.86;95.44
47330;BME280;33060;50.178;7.570;2023-01-31T01:53:42;97872.19;;;1.82;96.04
47330;BME280;33060;50.178;7.570;2023-01-31T01:56:14;97877.31;;;1.87;95.85
47330;BME280;33060;50.178;7.570;2023-01-31T01:58:57;97868.75;;;1.83;96.12
47330;BME280;33060;50.178;7.570;2023-01-31T02:01:29;97860.97;;;1.80;96.49
47330;BME280;33060;50.178;7.570;2023-01-31T02:03:57;97860.25;;;1.75;96.00
47330;BME280;33060;50.178;7.570;2023-01-31T02:06:23;97860.38;;;1.69;96.89
47330;BME280;33060;50.178;7.570;2023-01-31T02:08:52;97855.25;;;1.64;96.68
47330;BME280;33060;50.178;7.570;2023-01-31T02:11:25;97861.31;;;1.65;96.24
47330;BME280;33060;50.178;7.570;2023-01-31T02:13:59;97858.75;;;1.63;96.14
47330;BME280;33060;50.178;7.570;2023-01-31T02:16:26;97853.59;;;1.62;96.15
47330;BME280;33060;50.178;7.570;2023-01-31T02:18:55;97854.59;;;1.55;95.95
47330;BME280;33060;50.178;7.570;2023-01-31T02:24:46;97850.28;;;1.54;95.92
47330;BME280;33060;50.178;7.570;2023-01-31T02:33:01;97843.63;;;1.42;95.13
47330;BME280;33060;50.178;7.570;2023-01-31T02:41:03;97848.94;;;1.36;94.80
47330;BME280;33060;50.178;7.570;2023-01-31T02:43:45;97847.34;;;1.30;94.70
47330;BME280;33060;50.178;7.570;2023-01-31T02:46:52;97845.63;;;1.28;94.89
47330;BME280;33060;50.178;7.570;2023-01-31T02:49:26;97842.19;;;1.27;94.97
47330;BME280;33060;50.178;7.570;2023-01-31T02:57:35;97861.22;;;1.28;94.45
47330;BME280;33060;50.178;7.570;2023-01-31T03:00:05;97864.75;;;1.25;94.70
47330;BME280;33060;50.178;7.570;2023-01-31T03:02:33;97867.50;;;1.18;94.88
47330;BME280;33060;50.178;7.570;2023-01-31T03:05:01;97870.91;;;1.20;94.53
47330;BME280;33060;50.178;7.570;2023-01-31T03:07:30;97872.69;;;1.18;94.75
47330;BME280;33060;50.178;7.570;2023-01-31T03:15:54;97878.03;;;1.10;94.99
47330;BME280;33060;50.178;7.570;2023-01-31T03:18:27;97878.97;;;1.07;95.04
47330;BME280;33060;50.178;7.570;2023-01-31T03:21:02;97869.59;;;0.99;95.56
47330;BME280;33060;50.178;7.570;2023-01-31T03:23:30;97877.41;;;0.99;96.30
47330;BME280;33060;50.178;7.570;2023-01-31T03:26:01;97872.31;;;0.93;96.50
47330;BME280;33060;50.178;7.570;2023-01-31T03:28:31;97874.84;;;0.97;95.94
47330;BME280;33060;50.178;7.570;2023-01-31T03:33:47;97872.34;;;0.91;95.49
47330;BME280;33060;50.178;7.570;2023-01-31T03:42:09;97886.41;;;0.79;96.86
47330;BME280;33060;50.178;7.570;2023-01-31T03:44:45;97887.22;;;0.83;96.20
47330;BME280;33060;50.178;7.570;2023-01-31T03:47:20;97877.69;;;0.83;96.18
47330;BME280;33060;50.178;7.570;2023-01-31T03:49:50;97873.31;;;0.85;96.97
47330;BME280;33060;50.178;7.570;2023-01-31T03:52:24;97886.34;;;0.82;96.47
47330;BME280;33060;50.178;7.570;2023-01-31T03:54:57;97884.72;;;0.78;97.28
47330;BME280;33060;50.178;7.570;2023-01-31T03:57:37;97875.13;;;0.82;97.73
47330;BME280;33060;50.178;7.570;2023-01-31T04:00:11;97880.34;;;0.80;97.26
47330;BME280;33060;50.178;7.570;2023-01-31T04:02:53;97862.97;;;0.82;97.36
47330;BME280;33060;50.178;7.570;2023-01-31T04:05:23;97869.06;;;0.81;97.22
47330;BME280;33060;50.178;7.570;2023-01-31T04:07:57;97859.59;;;0.79;97.29
47330;BME280;33060;50.178;7.570;2023-01-31T04:10:24;97855.28;;;0.76;96.81
47330;BME280;33060;50.178;7.570;2023-01-31T04:12:52;97872.66;;;0.74;97.56
47330;BME280;33060;50.178;7.570;2023-01-31T04:15:19;97866.66;;;0.71;97.31
47330;BME280;33060;50.178;7.570;2023-01-31T04:17:46;97860.72;;;0.64;97.64
47330;BME280;33060;50.178;7.570;2023-01-31T04:20:13;97856.38;;;0.65;98.01
47330;BME280;33060;50.178;7.570;2023-01-31T04:22:40;97849.44;;;0.65;98.23
47330;BME280;33060;50.178;7.570;2023-01-31T04:25:07;97847.81;;;0.60;98.47
47330;BME280;33060;50.178;7.570;2023-01-31T04:27:33;97847.84;;;0.58;98.86
47330;BME280;33060;50.178;7.570;2023-01-31T04:30:00;97851.44;;;0.49;99.14
47330;BME280;33060;50.178;7.570;2023-01-31T04:32:27;97860.13;;;0.48;100.00
47330;BME280;33060;50.178;7.570;2023-01-31T04:34:54;97850.41;;;0.61;99.12
47330;BME280;33060;50.178;7.570;2023-01-31T04:37:20;97855.59;;;0.61;98.54
47330;BME280;33060;50.178;7.570;2023-01-31T04:39:47;97852.28;;;0.53;99.31
47330;BME280;33060;50.178;7.570;2023-01-31T04:42:13;97856.53;;;0.57;99.23
47330;BME280;33060;50.178;7.570;2023-01-31T04:44:40;97854.81;;;0.56;99.63
47330;BME280;33060;50.178;7.570;2023-01-31T04:47:07;97849.59;;;0.57;100.00
47330;BME280;33060;50.178;7.570;2023-01-31T04:49:34;97860.66;;;0.67;100.00
47330;BME280;33060;50.178;7.570;2023-01-31T04:52:01;97870.00;;;0.77;100.00
47330;BME280;33060;50.178;7.570;2023-01-31T04:54:27;97867.25;;;0.85;99.63
47330;BME280;33060;50.178;7.570;2023-01-31T04:56:54;97863.72;;;0.89;99.04
47330;BME280;33060;50.178;7.570;2023-01-31T04:59:20;97863.81;;;0.84;99.18
47330;BME280;33060;50.178;7.570;2023-01-31T05:01:47;97870.88;;;0.76;99.87
47330;BME280;33060;50.178;7.570;2023-01-31T05:04:14;97869.06;;;0.81;99.35
47330;BME280;33060;50.178;7.570;2023-01-31T05:06:40;97864.66;;;0.85;99.33
47330;BME280;33060;50.178;7.570;2023-01-31T05:09:07;97859.44;;;0.88;98.92
47330;BME280;33060;50.178;7.570;2023-01-31T05:11:34;97863.75;;;0.88;98.92
47330;BME280;33060;50.178;7.570;2023-01-31T05:14:00;97861.97;;;0.91;99.00
47330;BME280;33060;50.178;7.570;2023-01-31T05:16:27;97864.53;;;0.93;99.46
47330;BME280;33060;50.178;7.570;2023-01-31T05:19:01;97853.38;;;0.86;99.41
47330;BME280;33060;50.178;7.570;2023-01-31T05:21:28;97856.91;;;0.83;100.00
47330;BME280;33060;50.178;7.570;2023-01-31T05:23:54;97840.31;;;0.91;99.51
47330;BME280;33060;50.178;7.570;2023-01-31T05:26:21;97837.09;;;0.79;100.00
47330;BME280;33060;50.178;7.570;2023-01-31T05:28:48;97841.38;;;0.80;100.00
47330;BME280;33060;50.178;7.570;2023-01-31T05:31:14;97836.19;;;0.80;100.00
47330;BME280;33060;50.178;7.570;2023-01-31T05:33:41;97838.81;;;0.77;100.00
47330;BME280;33060;50.178;7.570;2023-01-31T05:36:08;97831.03;;;0.77;100.00
47330;BME280;33060;50.178;7.570;2023-01-31T05:38:35;97828.44;;;0.77;100.00
47330;BME280;33060;50.178;7.570;2023-01-31T05:41:02;97833.78;;;0.71;100.00
47330;BME280;33060;50.178;7.570;2023-01-31T05:43:29;97834.53;;;0.76;100.00
47330;BME280;33060;50.178;7.570;2023-01-31T05:45:55;97840.53;;;0.80;100.00
47330;BME280;33060;50.178;7.570;2023-01-31T05:48:22;97841.38;;;0.80;100.00
47330;BME280;33060;50.178;7.570;2023-01-31T05:50:48;97841.41;;;0.79;100.00
47330;BME280;33060;50.178;7.570;2023-01-31T05:53:16;97844.88;;;0.79;100.00
47330;BME280;33060;50.178;7.570;2023-01-31T05:55:44;97845.75;;;0.77;100.00
47330;BME280;33060;50.178;7.570;2023-01-31T05:58:10;97832.69;;;0.83;100.00
47330;BME280;33060;50.178;7.570;2023-01-31T06:00:37;97834.34;;;0.85;100.00
47330;BME280;33060;50.178;7.570;2023-01-31T06:03:04;97840.50;;;0.81;100.00
47330;BME280;33060;50.178;7.570;2023-01-31T06:05:30;97838.78;;;0.80;100.00
47330;BME280;33060;50.178;7.570;2023-01-31T06:07:57;97836.13;;;0.83;100.00
47330;BME280;33060;50.178;7.570;2023-01-31T06:10:24;97833.47;;;0.87;100.00
47330;BME280;33060;50.178;7.570;2023-01-31T06:12:51;97832.72;;;0.81;100.00
47330;BME280;33060;50.178;7.570;2023-01-31T06:15:18;97832.69;;;0.83;100.00
47330;BME280;33060;50.178;7.570;2023-01-31T06:17:45;97823.06;;;0.88;100.00
47330;BME280;33060;50.178;7.570;2023-01-31T06:20:11;97829.94;;;0.91;100.00
47330;BME280;33060;50.178;7.570;2023-01-31T06:22:38;97823.81;;;0.93;100.00
47330;BME280;33060;50.178;7.570;2023-01-31T06:25:06;97828.09;;;0.97;100.00
47330;BME280;33060;50.178;7.570;2023-01-31T06:27:33;97841.06;;;0.97;100.00
47330;BME280;33060;50.178;7.570;2023-01-31T06:30:00;97834.16;;;0.95;100.00
47330;BME280;33060;50.178;7.570;2023-01-31T06:32:27;97831.47;;;1.01;100.00
47330;BME280;33060;50.178;7.570;2023-01-31T06:34:53;97837.66;;;0.94;100.00
47330;BME280;33060;50.178;7.570;2023-01-31T06:37:20;97831.56;;;0.95;100.00
47330;BME280;33060;50.178;7.570;2023-01-31T06:39:47;97833.47;;;0.88;100.00
47330;BME280;33060;50.178;7.570;2023-01-31T06:42:13;97827.38;;;0.89;100.00
47330;BME280;33060;50.178;7.570;2023-01-31T06:44:40;97830.00;;;0.86;100.00
47330;BME280;33060;50.178;7.570;2023-01-31T06:47:06;97834.22;;;0.93;100.00
47330;BME280;33060;50.178;7.570;2023-01-31T06:49:33;97830.00;;;0.88;100.00
47330;BME280;33060;50.178;7.570;2023-01-31T06:52:00;97830.81;;;0.90;100.00
47330;BME280;33060;50.178;7.570;2023-01-31T06:54:26;97842.06;;;0.90;100.00
47330;BME280;33060;50.178;7.570;2023-01-31T06:56:53;97837.72;;;0.91;100.00
47330;BME280;33060;50.178;7.570;2023-01-31T06:59:20;97837.84;;;0.84;100.00
47330;BME280;33060;50.178;7.570;2023-01-31T07:01:47;97836.09;;;0.85;100.00
47330;BME280;33060;50.178;7.570;2023-01-31T07:04:13;97838.69;;;0.85;100.00
47330;BME280;33060;50.178;7.570;2023-01-31T07:06:40;97842.06;;;0.90;100.00
47330;BME280;33060;50.178;7.570;2023-01-31T07:09:07;97846.31;;;0.96;100.00
47330;BME280;33060;50.178;7.570;2023-01-31T07:11:33;97837.66;;;0.94;99.99
47330;BME280;33060;50.178;7.570;2023-01-31T07:14:00;97831.56;;;0.96;99.89
47330;BME280;33060;50.178;7.570;2023-01-31T07:16:26;97832.53;;;0.91;100.00
47330;BME280;33060;50.178;7.570;2023-01-31T07:18:54;97834.22;;;0.93;99.98
47330;BME280;33060;50.178;7.570;2023-01-31T07:21:21;97824.63;;;0.97;99.55
47330;BME280;33060;50.178;7.570;2023-01-31T07:23:48;97825.53;;;0.94;99.41
47330;BME280;33060;50.178;7.570;2023-01-31T07:26:15;97827.28;;;0.94;99.11
47330;BME280;33060;50.178;7.570;2023-01-31T07:28:41;97824.59;;;0.98;99.17
47330;BME280;33060;50.178;7.570;2023-01-31T07:31:11;97840.06;;;1.03;98.89
47330;BME280;33060;50.178;7.570;2023-01-31T07:33:39;97832.94;;;1.12;97.61
47330;BME280;33060;50.178;7.570;2023-01-31T07:36:06;97831.28;;;1.10;97.81
47330;BME280;33060;50.178;7.570;2023-01-31T07:38:34;97826.91;;;1.12;97.07
47330;BME280;33060;50.178;7.570;2023-01-31T07:41:02;97826.88;;;1.15;96.99
47330;BME280;33060;50.178;7.570;2023-01-31T07:43:30;97817.34;;;1.14;96.83
47330;BME280;33060;50.178;7.570;2023-01-31T07:45:57;97825.00;;;1.20;96.61
47330;BME280;33060;50.178;7.570;2023-01-31T07:48:24;97831.00;;;1.24;96.04
47330;BME280;33060;50.178;7.570;2023-01-31T07:51:01;97831.94;;;1.20;96.19
47330;BME280;33060;50.178;7.570;2023-01-31T07:53:29;97842.31;;;1.21;96.38
47330;BME280;33060;50.178;7.570;2023-01-31T07:56:13;97840.72;;;1.16;97.00
47330;BME280;33060;50.178;7.570;2023-01-31T07:58:41;97840.72;;;1.16;97.17
47330;BME280;33060;50.178;7.570;2023-01-31T08:01:13;97843.97;;;1.25;96.76
47330;BME280;33060;50.178;7.570;2023-01-31T08:03:59;97850.88;;;1.26;96.18
47330;BME280;33060;50.178;7.570;2023-01-31T08:06:45;97850.09;;;1.23;96.31
47330;BME280;33060;50.178;7.570;2023-01-31T08:09:13;97850.91;;;1.25;96.27
47330;BME280;33060;50.178;7.570;2023-01-31T08:11:39;97844.03;;;1.22;96.03
47330;BME280;33060;50.178;7.570;2023-01-31T08:14:06;97835.34;;;1.23;96.51
47330;BME280;33060;50.178;7.570;2023-01-31T08:16:34;97840.56;;;1.23;96.55
47330;BME280;33060;50.178;7.570;2023-01-31T08:19:05;97836.28;;;1.19;96.88
47330;BME280;33060;50.178;7.570;2023-01-31T08:21:42;97820.38;;;1.34;96.49
47330;BME280;33060;50.178;7.570;2023-01-31T08:24:09;97822.94;;;1.36;96.31
47330;BME280;33060;50.178;7.570;2023-01-31T08:26:35;97829.56;;;1.51;95.74
47330;BME280;33060;50.178;7.570;2023-01-31T08:29:02;97828.69;;;1.52;95.29
47330;BME280;33060;50.178;7.570;2023-01-31T08:31:29;97823.47;;;1.52;94.88
47330;BME280;33060;50.178;7.570;2023-01-31T08:33:55;97817.72;;;1.37;95.54
47330;BME280;33060;50.178;7.570;2023-01-31T08:36:27;97819.34;;;1.43;95.73
47330;BME280;33060;50.178;7.570;2023-01-31T08:38:57;97815.88;;;1.42;95.60
47330;BME280;33060;50.178;7.570;2023-01-31T08:41:25;97807.16;;;1.45;95.08
47330;BME280;33060;50.178;7.570;2023-01-31T08:43:52;97811.63;;;1.40;95.79
47330;BME280;33060;50.178;7.570;2023-01-31T08:46:25;97820.97;;;1.49;95.53
47330;BME280;33060;50.178;7.570;2023-01-31T08:48:52;97810.91;;;1.70;94.68
47330;BME280;33060;50.178;7.570;2023-01-31T08:51:19;97814.78;;;1.91;93.09
47330;BME280;33060;50.178;7.570;2023-01-31T08:53:46;97814.63;;;1.97;92.16
47330;BME280;33060;50.178;7.570;2023-01-31T08:56:13;97811.50;;;1.83;91.82
47330;BME280;33060;50.178;7.570;2023-01-31T08:58:42;97806.16;;;1.89;92.56
47330;BME280;33060;50.178;7.570;2023-01-31T09:01:16;97815.00;;;1.81;92.90
47330;BME280;33060;50.178;7.570;2023-01-31T09:03:44;97812.25;;;1.88;93.38
47330;BME280;33060;50.178;7.570;2023-01-31T09:06:14;97799.59;;;2.10;90.92
47330;BME280;33060;50.178;7.570;2023-01-31T09:08:41;97797.41;;;1.93;92.10
47330;BME280;33060;50.178;7.570;2023-01-31T09:11:08;97801.84;;;1.88;92.74
47330;BME280;33060;50.178;7.570;2023-01-31T09:13:35;97811.78;;;1.71;93.43
47330;BME280;33060;50.178;7.570;2023-01-31T09:16:04;97810.75;;;1.78;93.14
47330;BME280;33060;50.178;7.570;2023-01-31T09:18:46;97814.97;;;1.84;92.40
47330;BME280;33060;50.178;7.570;2023-01-31T09:21:16;97804.06;;;2.04;91.41
47330;BME280;33060;50.178;7.570;2023-01-31T09:23:43;97816.91;;;2.11;91.32
47330;BME280;33060;50.178;7.570;2023-01-31T09:26:11;97811.22;;;1.95;92.04
47330;BME280;33060;50.178;7.570;2023-01-31T09:28:38;97810.66;;;1.81;92.67
47330;BME280;33060;50.178;7.570;2023-01-31T09:31:10;97797.63;;;1.84;92.95
47330;BME280;33060;50.178;7.570;2023-01-31T09:33:37;97793.97;;;1.91;92.06
47330;BME280;33060;50.178;7.570;2023-01-31T09:36:07;97792.81;;;2.03;90.83
47330;BME280;33060;50.178;7.570;2023-01-31T09:38:34;97796.81;;;2.16;90.07
47330;BME280;33060;50.178;7.570;2023-01-31T09:41:13;97819.72;;;2.02;90.30
47330;BME280;33060;50.178;7.570;2023-01-31T09:43:48;97813.91;;;1.92;91.28
47330;BME280;33060;50.178;7.570;2023-01-31T09:46:19;97820.97;;;1.86;91.53
47330;BME280;33060;50.178;7.570;2023-01-31T09:48:50;97827.25;;;1.77;91.51
47330;BME280;33060;50.178;7.570;2023-01-31T09:51:18;97826.81;;;1.95;90.95
47330;BME280;33060;50.178;7.570;2023-01-31T09:53:46;97823.41;;;1.93;90.87
47330;BME280;33060;50.178;7.570;2023-01-31T09:59:02;97819.06;;;1.94;90.78
47330;BME280;33060;50.178;7.570;2023-01-31T10:09:47;97820.63;;;2.01;89.87
47330;BME280;33060;50.178;7.570;2023-01-31T10:12:21;97830.16;;;2.02;90.04
47330;BME280;33060;50.178;7.570;2023-01-31T10:14:58;97825.84;;;1.99;89.81
47330;BME280;33060;50.178;7.570;2023-01-31T10:17:27;97821.13;;;1.80;90.80
47330;BME280;33060;50.178;7.570;2023-01-31T10:20:15;97814.72;;;1.94;90.56
47330;BME280;33060;50.178;7.570;2023-01-31T10:23:00;97804.34;;;1.93;90.14
47330;BME280;33060;50.178;7.570;2023-01-31T10:25:33;97788.66;;;1.96;90.10
47330;BME280;33060;50.178;7.570;2023-01-31T10:28:10;97785.19;;;1.95;90.22
47330;BME280;33060;50.178;7.570;2023-01-31T10:30:54;97775.81;;;1.88;90.42
47330;BME280;33060;50.178;7.570;2023-01-31T10:36:13;97779.69;;;2.08;89.16
47330;BME280;33060;50.178;7.570;2023-01-31T10:39:04;97771.25;;;1.98;89.53
47330;BME280;33060;50.178;7.570;2023-01-31T10:45:10;97771.06;;;2.06;89.40
47330;BME280;33060;50.178;7.570;2023-01-31T10:50:28;97779.22;;;1.92;90.91
47330;BME280;33060;50.178;7.570;2023-01-31T10:56:01;97749.75;;;1.90;91.46
47330;BME280;33060;50.178;7.570;2023-01-31T10:58:29;97737.44;;;1.98;90.79
47330;BME280;33060;50.178;7.570;2023-01-31T11:00:57;97732.88;;;2.06;90.34
47330;BME280;33060;50.178;7.570;2023-01-31T11:03:24;97737.09;;;2.12;90.35
47330;BME280;33060;50.178;7.570;2023-01-31T11:05:53;97711.88;;;2.46;88.17
47330;BME280;33060;50.178;7.570;2023-01-31T11:08:39;97713.28;;;2.27;88.90
47330;BME280;33060;50.178;7.570;2023-01-31T11:11:16;97713.22;;;2.29;88.75
47330;BME280;33060;50.178;7.570;2023-01-31T11:16:23;97722.19;;;2.17;89.94
47330;BME280;33060;50.178;7.570;2023-01-31T11:18:51;97713.44;;;2.21;89.71
47330;BME280;33060;50.178;7.570;2023-01-31T11:21:27;97700.91;;;2.35;89.50
47330;BME280;33060;50.178;7.570;2023-01-31T11:24:06;97685.31;;;2.34;89.30
47330;BME280;33060;50.178;7.570;2023-01-31T11:26:51;97681.06;;;2.31;89.25
47330;BME280;33060;50.178;7.570;2023-01-31T11:29:23;97675.81;;;2.33;89.50
47330;BME280;33060;50.178;7.570;2023-01-31T11:31:52;97673.16;;;2.34;89.43
47330;BME280;33060;50.178;7.570;2023-01-31T11:34:23;97683.50;;;2.37;89.52
47330;BME280;33060;50.178;7.570;2023-01-31T11:36:50;97678.34;;;2.34;89.71
47330;BME280;33060;50.178;7.570;2023-01-31T11:39:26;97687.22;;;2.29;90.31
47330;BME280;33060;50.178;7.570;2023-01-31T11:41:54;97687.25;;;2.25;91.10
47330;BME280;33060;50.178;7.570;2023-01-31T11:44:22;97670.69;;;2.30;90.66
47330;BME280;33060;50.178;7.570;2023-01-31T11:47:24;97658.56;;;2.29;90.96
47330;BME280;33060;50.178;7.570;2023-01-31T11:49:46;97664.09;;;2.16;92.40
47330;BME280;33060;50.178;7.570;2023-01-31T11:52:20;97662.44;;;2.14;93.15
47330;BME280;33060;50.178;7.570;2023-01-31T11:54:56;97670.94;;;2.20;92.64
47330;BME280;33060;50.178;7.570;2023-01-31T11:57:26;97666.22;;;2.35;92.66
47330;BME280;33060;50.178;7.570;2023-01-31T11:59:56;97657.41;;;2.39;92.11
47330;BME280;33060;50.178;7.570;2023-01-31T12:02:40;97640.69;;;2.47;92.00
47330;BME280;33060;50.178;7.570;2023-01-31T12:05:09;97625.75;;;2.54;91.35
47330;BME280;33060;50.178;7.570;2023-01-31T12:07:46;97628.25;;;2.57;91.82
47330;BME280;33060;50.178;7.570;2023-01-31T12:10:41;97616.88;;;2.60;91.52
47330;BME280;33060;50.178;7.570;2023-01-31T12:13:16;97620.59;;;2.52;91.92
47330;BME280;33060;50.178;7.570;2023-01-31T12:18:24;97614.69;;;2.46;92.97
47330;BME280;33060;50.178;7.570;2023-01-31T12:21:04;97612.09;;;2.46;93.40
47330;BME280;33060;50.178;7.570;2023-01-31T12:23:49;97608.44;;;2.51;93.20
47330;BME280;33060;50.178;7.570;2023-01-31T12:26:45;97601.25;;;2.60;92.95
47330;BME280;33060;50.178;7.570;2023-01-31T12:32:17;97607.19;;;2.65;93.37
47330;BME280;33060;50.178;7.570;2023-01-31T12:35:22;97607.88;;;2.71;93.04
47330;BME280;33060;50.178;7.570;2023-01-31T12:48:55;97568.69;;;2.74;93.47
47330;BME280;33060;50.178;7.570;2023-01-31T12:57:16;97572.94;;;2.78;93.74
47330;BME280;33060;50.178;7.570;2023-01-31T13:00:12;97564.50;;;2.70;94.05
47330;BME280;33060;50.178;7.570;2023-01-31T13:05:35;97556.41;;;2.78;94.22
47330;BME280;33060;50.178;7.570;2023-01-31T13:08:10;97543.69;;;2.69;94.70
47330;BME280;33060;50.178;7.570;2023-01-31T13:10:46;97540.00;;;2.76;94.83
47330;BME280;33060;50.178;7.570;2023-01-31T13:13:36;97531.19;;;2.80;94.61
47330;BME280;33060;50.178;7.570;2023-01-31T13:16:10;97533.09;;;2.75;94.96
47330;BME280;33060;50.178;7.570;2023-01-31T13:18:46;97540.94;;;2.73;95.32
47330;BME280;33060;50.178;7.570;2023-01-31T13:21:22;97529.69;;;2.73;95.66
47330;BME280;33060;50.178;7.570;2023-01-31T13:23:56;97532.91;;;2.81;95.08
47330;BME280;33060;50.178;7.570;2023-01-31T13:26:30;97531.28;;;2.77;94.95
47330;BME280;33060;50.178;7.570;2023-01-31T13:29:09;97543.31;;;2.81;95.21
47330;BME280;33060;50.178;7.570;2023-01-31T13:31:43;97536.41;;;2.80;95.77
47330;BME280;33060;50.178;7.570;2023-01-31T13:34:19;97534.84;;;2.74;95.84
47330;BME280;33060;50.178;7.570;2023-01-31T13:36:54;97534.72;;;2.79;96.28
47330;BME280;33060;50.178;7.570;2023-01-31T13:39:27;97540.78;;;2.79;96.83
47330;BME280;33060;50.178;7.570;2023-01-31T13:41:56;97533.84;;;2.78;96.79
47330;BME280;33060;50.178;7.570;2023-01-31T13:44:23;97535.56;;;2.79;96.67
47330;BME280;33060;50.178;7.570;2023-01-31T13:46:56;97538.41;;;2.72;97.13
47330;BME280;33060;50.178;7.570;2023-01-31T13:52:26;97543.41;;;2.78;96.81
47330;BME280;33060;50.178;7.570;2023-01-31T13:55:20;97547.47;;;2.87;96.75
47330;BME280;33060;50.178;7.570;2023-01-31T13:57:56;97536.06;;;2.91;96.69
47330;BME280;33060;50.178;7.570;2023-01-31T14:00:41;97548.41;;;2.84;97.12
47330;BME280;33060;50.178;7.570;2023-01-31T14:03:11;97548.59;;;2.78;97.92
47330;BME280;33060;50.178;7.570;2023-01-31T14:08:28;97554.78;;;2.75;98.34
47330;BME280;33060;50.178;7.570;2023-01-31T14:10:57;97542.34;;;2.83;97.84
47330;BME280;33060;50.178;7.570;2023-01-31T14:15:57;97535.25;;;2.89;98.16
47330;BME280;33060;50.178;7.570;2023-01-31T14:18:47;97536.16;;;2.88;98.29
47330;BME280;33060;50.178;7.570;2023-01-31T14:23:59;97554.53;;;2.83;99.08
47330;BME280;33060;50.178;7.570;2023-01-31T14:29:28;97557.16;;;2.83;99.75
47330;BME280;33060;50.178;7.570;2023-01-31T14:31:55;97558.94;;;2.81;100.00
47330;BME280;33060;50.178;7.570;2023-01-31T14:34:27;97558.94;;;2.81;100.00
47330;BME280;33060;50.178;7.570;2023-01-31T14:37:03;97556.34;;;2.81;100.00
47330;BME280;33060;50.178;7.570;2023-01-31T14:39:46;97556.09;;;2.89;100.00
47330;BME280;33060;50.178;7.570;2023-01-31T14:53:24;97551.75;;;2.89;100.00
47330;BME280;33060;50.178;7.570;2023-01-31T14:58:25;97544.72;;;2.91;100.00
47330;BME280;33060;50.178;7.570;2023-01-31T15:00:55;97547.22;;;2.94;100.00
47330;BME280;33060;50.178;7.570;2023-01-31T15:03:35;97546.25;;;2.98;100.00
47330;BME280;33060;50.178;7.570;2023-01-31T15:06:10;97550.69;;;2.95;100.00
47330;BME280;33060;50.178;7.570;2023-01-31T15:08:42;97555.03;;;2.94;100.00
47330;BME280;33060;50.178;7.570;2023-01-31T15:17:19;97538.44;;;2.98;100.00
47330;BME280;33060;50.178;7.570;2023-01-31T15:20:13;97534.31;;;2.91;100.00
47330;BME280;33060;50.178;7.570;2023-01-31T15:22:41;97539.09;;;3.03;100.00
47330;BME280;33060;50.178;7.570;2023-01-31T15:25:48;97539.09;;;3.05;100.00
47330;BME280;33060;50.178;7.570;2023-01-31T15:28:28;97547.03;;;3.00;100.00
47330;BME280;33060;50.178;7.570;2023-01-31T15:30:58;97545.19;;;3.04;100.00